Time;durP1;ratioP1;P1;durP2;ratioP2;P2;SDS_P1;SDS_P2;PMS_P1;PMS_P2;Temp;Humidity;BMP_temperature;BMP_pressure;BME280_temperature;BME280_humidity;BME280_pressure;Samples;Min_cycle;Max_cycle;Signal;HPM_P1;HPM_P2
2021/01/03 00:00:34;;;;;;;46.78;22.70;;;-1.30;99.90;;;;;;2047771;28;20178;-66
2021/01/03 00:01:34;;;;;;;48.88;22.02;;;-1.30;99.90;;;;;;2046210;28;20206;-65
2021/01/03 00:02:35;;;;;;;44.47;21.87;;;-1.30;99.90;;;;;;2046745;28;20211;-66
2021/01/03 00:03:37;;;;;;;45.90;21.87;;;-1.30;99.90;;;;;;2046909;28;20190;-65
2021/01/03 00:04:39;;;;;;;38.65;21.33;;;-1.30;99.90;;;;;;2046776;28;20282;-66
2021/01/03 00:05:40;;;;;;;40.90;20.30;;;-1.40;99.90;;;;;;2046853;28;20186;-66
2021/01/03 00:06:41;;;;;;;38.93;20.93;;;-1.40;99.90;;;;;;2047094;28;20249;-66
2021/01/03 00:07:42;;;;;;;41.85;21.45;;;-1.40;99.90;;;;;;2051861;28;20194;-65
2021/01/03 00:08:43;;;;;;;43.83;21.17;;;-1.30;99.90;;;;;;2051251;28;20195;-65
2021/01/03 00:09:44;;;;;;;40.83;20.83;;;-1.30;99.90;;;;;;2046902;28;20224;-66
2021/01/03 00:10:45;;;;;;;45.53;19.93;;;-1.30;99.90;;;;;;2046678;28;20598;-66
2021/01/03 00:11:46;;;;;;;40.83;20.50;;;-1.30;99.90;;;;;;2046205;28;20764;-66
2021/01/03 00:12:47;;;;;;;35.15;19.45;;;-1.30;99.90;;;;;;2049647;28;20664;-66
2021/01/03 00:13:47;;;;;;;37.13;19.38;;;-1.30;99.90;;;;;;2054776;28;20356;-66
2021/01/03 00:14:48;;;;;;;40.73;21.10;;;-1.30;99.90;;;;;;2051101;28;20559;-65
2021/01/03 00:15:49;;;;;;;38.67;20.37;;;-1.40;99.90;;;;;;2046326;28;20185;-65
2021/01/03 00:16:53;;;;;;;36.23;19.83;;;-1.40;99.90;;;;;;2046219;28;20228;-65
2021/01/03 00:17:54;;;;;;;37.92;19.15;;;-1.40;99.90;;;;;;2046301;29;20207;-67
2021/01/03 00:18:55;;;;;;;36.93;19.07;;;-1.40;99.90;;;;;;2050955;28;20978;-70
2021/01/03 00:19:55;;;;;;;38.17;20.17;;;-1.30;99.90;;;;;;2054700;28;20186;-69
2021/01/03 00:20:56;;;;;;;35.40;19.33;;;-1.30;99.90;;;;;;2050615;28;20179;-71
2021/01/03 00:21:57;;;;;;;31.93;18.20;;;-1.20;99.90;;;;;;2047534;29;20183;-70
2021/01/03 00:22:58;;;;;;;32.97;17.73;;;-1.30;99.90;;;;;;2052496;28;20201;-68
2021/01/03 00:23:58;;;;;;;33.80;17.57;;;-1.30;99.90;;;;;;2055309;28;20182;-68
2021/01/03 00:24:59;;;;;;;36.47;18.43;;;-1.30;99.90;;;;;;2051044;28;20433;-68
2021/01/03 00:26:00;;;;;;;26.97;15.70;;;-1.30;99.90;;;;;;2046288;28;20195;-67
2021/01/03 00:27:00;;;;;;;31.33;17.47;;;-1.40;99.90;;;;;;2073242;28;20183;-67
2021/01/03 00:28:01;;;;;;;28.77;16.50;;;-1.40;99.90;;;;;;2087206;28;20237;-70
2021/01/03 00:29:02;;;;;;;30.13;17.37;;;-1.40;99.90;;;;;;2048244;28;20277;-70
2021/01/03 00:30:10;;;;;;;30.10;16.43;;;-1.50;99.90;;;;;;2053087;28;20726;-69
2021/01/03 00:31:11;;;;;;;30.05;16.33;;;-1.40;99.90;;;;;;2048602;28;20209;-69
2021/01/03 00:32:11;;;;;;;29.20;15.70;;;-1.40;99.90;;;;;;2047122;28;20552;-69
2021/01/03 00:33:12;;;;;;;29.73;16.23;;;-1.40;99.90;;;;;;2046736;28;20846;-69
2021/01/03 00:34:14;;;;;;;28.30;15.43;;;-1.40;99.90;;;;;;2048162;29;20194;-69
2021/01/03 00:35:20;;;;;;;28.85;15.65;;;-1.40;99.90;;;;;;2047480;28;20189;-67
2021/01/03 00:36:21;;;;;;;28.13;15.25;;;-1.40;99.90;;;;;;2039931;29;20334;-67
2021/01/03 00:37:22;;;;;;;30.95;16.13;;;-1.40;99.90;;;;;;2047551;29;20183;-69
2021/01/03 00:38:22;;;;;;;30.30;16.07;;;-1.40;99.90;;;;;;2047281;28;20183;-67
2021/01/03 00:39:23;;;;;;;28.23;15.83;;;-1.40;99.90;;;;;;2039820;28;20180;-68
2021/01/03 00:40:25;;;;;;;29.37;15.67;;;-1.40;99.90;;;;;;2050862;28;20661;-69
2021/01/03 00:41:25;;;;;;;30.33;16.92;;;-1.40;99.90;;;;;;2055838;28;20844;-69
2021/01/03 00:42:26;;;;;;;28.40;15.00;;;-1.50;99.90;;;;;;2054564;28;20209;-67
2021/01/03 00:43:27;;;;;;;26.27;12.83;;;-1.50;99.90;;;;;;2048711;28;20658;-67
2021/01/03 00:44:27;;;;;;;24.77;13.63;;;-1.50;99.90;;;;;;2062355;28;20208;-69
2021/01/03 00:45:28;;;;;;;27.10;14.43;;;-1.40;99.90;;;;;;2047567;29;20245;-69
2021/01/03 00:46:29;;;;;;;26.58;13.40;;;-1.50;99.90;;;;;;2047368;29;20222;-69
2021/01/03 00:47:30;;;;;;;25.50;13.83;;;-1.50;99.90;;;;;;2047324;29;20281;-69
2021/01/03 00:48:31;;;;;;;28.27;14.77;;;-1.50;99.90;;;;;;2040804;29;20202;-69
2021/01/03 00:49:31;;;;;;;23.77;12.90;;;-1.50;99.90;;;;;;2047476;29;20233;-69
2021/01/03 00:50:32;;;;;;;22.27;12.50;;;-1.40;99.90;;;;;;2055626;28;20870;-69
2021/01/03 00:51:33;;;;;;;27.38;13.80;;;-1.50;99.90;;;;;;2088696;28;20183;-71
2021/01/03 00:52:35;;;;;;;27.20;13.63;;;-1.50;99.90;;;;;;2047150;29;20198;-69
2021/01/03 00:53:36;;;;;;;24.65;12.43;;;-1.50;99.90;;;;;;2039355;29;20218;-69
2021/01/03 00:54:36;;;;;;;22.83;12.50;;;-1.50;99.90;;;;;;2035839;29;20626;-71
2021/01/03 00:55:37;;;;;;;21.20;12.33;;;-1.50;99.90;;;;;;2047525;29;20248;-70
2021/01/03 00:56:38;;;;;;;28.97;14.23;;;-1.50;99.90;;;;;;2049659;28;20214;-70
2021/01/03 00:57:39;;;;;;;24.27;13.00;;;-1.50;99.90;;;;;;2039467;29;20206;-73
2021/01/03 00:58:39;;;;;;;25.08;12.95;;;-1.50;99.90;;;;;;2033995;28;20234;-71
2021/01/03 00:59:40;;;;;;;26.93;12.53;;;-1.50;99.90;;;;;;2047094;28;20685;-68
2021/01/03 01:00:41;;;;;;;24.70;13.47;;;-1.40;99.90;;;;;;2049937;28;20653;-68
2021/01/03 01:01:41;;;;;;;26.30;13.43;;;-1.40;99.90;;;;;;2056060;28;20178;-70
2021/01/03 01:02:42;;;;;;;25.50;13.10;;;-1.40;99.90;;;;;;2053068;28;20203;-69
2021/01/03 01:03:43;;;;;;;22.60;12.63;;;-1.40;99.90;;;;;;2048257;28;20234;-69
2021/01/03 01:04:43;;;;;;;22.50;12.20;;;-1.40;99.90;;;;;;2052826;28;20814;-69
2021/01/03 01:05:44;;;;;;;25.47;12.17;;;-1.40;99.90;;;;;;2047017;29;20218;-69
2021/01/03 01:06:45;;;;;;;25.33;12.37;;;-1.40;99.90;;;;;;2047723;29;20183;-72
2021/01/03 01:07:46;;;;;;;26.93;13.03;;;-1.40;99.90;;;;;;2047514;29;20184;-68
2021/01/03 01:08:47;;;;;;;24.15;12.77;;;-1.40;99.90;;;;;;2039933;29;20694;-68
2021/01/03 01:09:48;;;;;;;27.70;13.52;;;-1.40;99.90;;;;;;2047678;29;20195;-68
2021/01/03 01:10:48;;;;;;;25.20;12.97;;;-1.40;99.90;;;;;;2047701;29;20183;-68
2021/01/03 01:11:52;;;;;;;24.80;12.47;;;-1.40;99.90;;;;;;2039633;29;20608;-68
2021/01/03 01:12:57;;;;;;;24.92;13.30;;;-1.40;99.90;;;;;;2040176;29;20218;-68
2021/01/03 01:13:58;;;;;;;27.80;14.45;;;-1.40;99.90;;;;;;2047568;29;20191;-68
2021/01/03 01:14:58;;;;;;;24.42;12.65;;;-1.40;99.90;;;;;;2047841;29;20213;-68
2021/01/03 01:16:01;;;;;;;24.43;13.00;;;-1.40;99.90;;;;;;2047643;29;20218;-69
2021/01/03 01:17:02;;;;;;;22.83;12.77;;;-1.30;99.90;;;;;;2047460;29;20182;-68
2021/01/03 01:18:02;;;;;;;26.77;13.17;;;-1.30;99.90;;;;;;2039076;29;20663;-69
2021/01/03 01:19:05;;;;;;;23.00;12.37;;;-1.40;99.90;;;;;;2038991;28;20191;-70
2021/01/03 01:20:08;;;;;;;27.13;13.32;;;-1.40;99.90;;;;;;2031172;29;20189;-70
2021/01/03 01:21:08;;;;;;;25.02;13.02;;;-1.40;99.90;;;;;;2031431;28;20223;-70
2021/01/03 01:22:09;;;;;;;23.27;11.93;;;-1.30;99.90;;;;;;2047339;29;20653;-69
2021/01/03 01:23:10;;;;;;;23.07;12.53;;;-1.40;99.90;;;;;;2047987;28;20274;-70
2021/01/03 01:24:11;;;;;;;23.70;13.27;;;-1.40;99.90;;;;;;2048150;28;20695;-69
2021/01/03 01:25:14;;;;;;;23.30;12.50;;;-1.40;99.90;;;;;;2047723;29;20182;-69
2021/01/03 01:26:15;;;;;;;29.05;13.38;;;-1.40;99.90;;;;;;2039910;29;20240;-69
2021/01/03 01:27:16;;;;;;;24.30;13.47;;;-1.40;99.90;;;;;;2047635;28;20579;-69
2021/01/03 01:28:16;;;;;;;23.13;12.93;;;-1.30;99.90;;;;;;2055356;28;20182;-69
2021/01/03 01:29:17;;;;;;;23.60;12.00;;;-1.30;99.90;;;;;;2048216;28;20181;-70
2021/01/03 01:30:19;;;;;;;26.67;13.03;;;-1.30;99.90;;;;;;2048249;28;20610;-69
2021/01/03 01:31:20;;;;;;;25.05;13.20;;;-1.30;99.90;;;;;;2047552;28;20179;-69
2021/01/03 01:32:20;;;;;;;21.30;12.33;;;-1.40;99.90;;;;;;2039594;29;20681;-70
2021/01/03 01:33:21;;;;;;;25.87;13.17;;;-1.40;99.90;;;;;;2047474;29;20206;-69
2021/01/03 01:34:22;;;;;;;27.27;13.07;;;-1.40;99.90;;;;;;2047429;29;20174;-69
2021/01/03 01:35:30;;;;;;;23.47;12.50;;;-1.40;99.90;;;;;;2047540;29;20226;-69
2021/01/03 01:36:31;;;;;;;24.00;12.98;;;-1.50;99.90;;;;;;2047588;29;20170;-70
2021/01/03 01:37:32;;;;;;;23.97;13.50;;;-1.50;99.90;;;;;;2047601;29;20192;-69
2021/01/03 01:38:33;;;;;;;24.75;13.25;;;-1.50;99.90;;;;;;2048144;28;20804;-69
2021/01/03 01:39:34;;;;;;;25.83;13.90;;;-1.50;99.90;;;;;;2047362;29;20183;-69
2021/01/03 01:40:38;;;;;;;26.50;14.97;;;-1.40;99.90;;;;;;2039642;29;20182;-70
2021/01/03 01:41:39;;;;;;;28.83;14.80;;;-1.40;99.90;;;;;;2039929;29;20536;-69
2021/01/03 01:42:40;;;;;;;23.63;13.53;;;-1.40;99.90;;;;;;2047175;28;20252;-70
2021/01/03 01:43:40;;;;;;;23.23;13.50;;;-1.50;99.90;;;;;;2055405;28;20198;-69
2021/01/03 01:44:41;;;;;;;26.90;13.63;;;-1.50;99.90;;;;;;2047960;28;20447;-69
2021/01/03 01:45:46;;;;;;;27.43;13.87;;;-1.50;99.90;;;;;;2039483;28;20235;-69
2021/01/03 01:46:56;;;;;;;25.92;14.07;;;-1.50;99.90;;;;;;2032636;29;20193;-71
2021/01/03 01:48:10;;;;;;;25.10;13.05;;;-1.50;99.90;;;;;;2040987;29;20594;-69
2021/01/03 01:49:14;;;;;;;20.90;11.60;;;-1.50;99.90;;;;;;2041184;29;20234;-70
2021/01/03 01:50:30;;;;;;;26.13;14.30;;;-1.50;99.90;;;;;;2040020;29;20629;-70
2021/01/03 01:51:38;;;;;;;24.23;13.00;;;-1.50;99.90;;;;;;2041320;29;20175;-69
2021/01/03 01:52:46;;;;;;;27.17;13.88;;;-1.50;99.90;;;;;;2032513;29;20220;-69
2021/01/03 01:54:09;;;;;;;27.15;13.10;;;-1.40;99.90;;;;;;2040454;29;20196;-69
2021/01/03 01:55:20;;;;;;;26.98;12.93;;;-1.50;99.90;;;;;;2042322;29;20191;-69
2021/01/03 01:56:36;;;;;;;23.73;11.80;;;-1.50;99.90;;;;;;2040730;29;20180;-69
2021/01/03 01:58:10;;;;;;;25.25;13.45;;;-1.40;99.90;;;;;;2047504;29;20188;-69
2021/01/03 01:59:34;;;;;;;24.27;12.82;;;-1.40;99.90;;;;;;2046879;29;20328;-69
2021/01/03 02:00:38;;;;;;;27.98;13.23;;;-1.40;99.90;;;;;;2047301;29;20168;-69
2021/01/03 02:01:51;;;;;;;27.02;13.65;;;-1.40;99.90;;;;;;2039438;29;20268;-69
2021/01/03 02:02:59;;;;;;;25.88;13.38;;;-1.40;99.90;;;;;;2041062;29;20643;-69
2021/01/03 02:04:23;;;;;;;22.45;13.18;;;-1.50;99.90;;;;;;2040392;29;20208;-69
2021/01/03 02:05:49;;;;;;;24.83;13.15;;;-1.50;99.90;;;;;;2047517;29;20257;-70
2021/01/03 02:06:58;;;;;;;27.52;13.20;;;-1.50;99.90;;;;;;2047210;29;20207;-69
2021/01/03 02:08:15;;;;;;;23.88;13.63;;;-1.40;99.90;;;;;;2040437;29;20187;-69
2021/01/03 02:09:37;;;;;;;23.75;12.63;;;-1.50;99.90;;;;;;2047445;29;20248;-69
2021/01/03 02:10:45;;;;;;;23.25;12.52;;;-1.50;99.90;;;;;;2039482;28;20930;-69
2021/01/03 02:11:46;;;;;;;24.63;12.60;;;-1.50;99.90;;;;;;2033471;29;20586;-69
2021/01/03 02:13:12;;;;;;;23.23;12.63;;;-1.50;99.90;;;;;;2039172;29;20215;-69
2021/01/03 02:14:13;;;;;;;24.70;12.90;;;-1.50;99.90;;;;;;2047481;29;20209;-70
2021/01/03 02:15:28;;;;;;;22.27;12.23;;;-1.50;99.90;;;;;;2047946;28;20195;-69
2021/01/03 02:16:36;;;;;;;26.70;13.68;;;-1.70;99.90;;;;;;2047202;29;20176;-70
2021/01/03 02:17:37;;;;;;;22.83;12.57;;;-1.60;99.90;;;;;;2040371;29;20818;-69
2021/01/03 02:18:38;;;;;;;22.95;13.23;;;-1.60;99.90;;;;;;2039186;29;20196;-69
2021/01/03 02:19:39;;;;;;;24.85;13.70;;;-1.60;99.90;;;;;;2039428;29;20183;-69
2021/01/03 02:21:19;;;;;;;25.87;14.17;;;-1.60;99.90;;;;;;2031582;29;20254;-68
2021/01/03 02:22:41;;;;;;;24.48;13.82;;;-1.50;99.90;;;;;;2044678;29;20213;-69
2021/01/03 02:23:52;;;;;;;24.30;13.50;;;-1.60;99.90;;;;;;2047020;29;20634;-68
2021/01/03 02:25:03;;;;;;;27.63;13.82;;;-1.60;99.90;;;;;;2040547;29;20183;-68
2021/01/03 02:26:04;;;;;;;24.95;12.77;;;-1.50;99.90;;;;;;2040610;29;20729;-69
2021/01/03 02:27:18;;;;;;;25.52;13.60;;;-1.50;99.90;;;;;;2039357;29;20529;-69
2021/01/03 02:28:22;;;;;;;27.48;14.15;;;-1.50;99.90;;;;;;2041098;29;20175;-69
2021/01/03 02:29:25;;;;;;;26.25;13.82;;;-1.50;99.90;;;;;;2039785;29;20176;-69
2021/01/03 02:30:28;;;;;;;26.25;13.65;;;-1.50;99.90;;;;;;2039448;29;20747;-69
2021/01/03 02:31:43;;;;;;;25.63;13.82;;;-1.50;99.90;;;;;;2039490;29;20194;-69
2021/01/03 02:32:49;;;;;;;23.88;12.52;;;-1.50;99.90;;;;;;2041363;29;20211;-69
2021/01/03 02:33:53;;;;;;;28.05;13.55;;;-1.50;99.90;;;;;;2040017;29;20219;-69
2021/01/03 02:34:54;;;;;;;27.52;13.90;;;-1.50;99.90;;;;;;2039631;29;20198;-70
2021/01/03 02:36:23;;;;;;;24.33;13.53;;;-1.40;99.90;;;;;;2047254;29;20273;-69
2021/01/03 02:37:46;;;;;;;28.00;13.73;;;-1.40;99.90;;;;;;2048063;28;20689;-69
2021/01/03 02:39:20;;;;;;;23.38;12.15;;;-1.40;99.90;;;;;;2047330;29;20175;-69
2021/01/03 02:40:24;;;;;;;21.95;12.05;;;-1.30;99.90;;;;;;2046004;29;20187;-69
2021/01/03 02:41:25;;;;;;;21.40;11.98;;;-1.40;99.90;;;;;;2046645;29;20684;-70
2021/01/03 02:42:33;;;;;;;26.53;12.97;;;-1.40;99.90;;;;;;2047031;29;20192;-69
2021/01/03 02:43:33;;;;;;;25.05;13.40;;;-1.30;99.90;;;;;;2046528;28;20683;-69
2021/01/03 02:44:34;;;;;;;26.33;13.63;;;-1.40;99.90;;;;;;2047075;28;20194;-69
2021/01/03 02:45:35;;;;;;;23.53;13.37;;;-1.40;99.90;;;;;;2054856;28;20314;-69
2021/01/03 02:46:37;;;;;;;26.53;14.67;;;-1.40;99.90;;;;;;2047098;29;20213;-69
2021/01/03 02:47:39;;;;;;;24.83;13.23;;;-1.30;99.90;;;;;;2039299;29;20226;-69
2021/01/03 02:48:41;;;;;;;26.63;14.77;;;-1.30;99.90;;;;;;2039395;29;20215;-69
2021/01/03 02:49:41;;;;;;;26.50;14.85;;;-1.30;99.90;;;;;;2032204;29;20188;-70
2021/01/03 02:50:42;;;;;;;24.87;13.77;;;-1.30;99.90;;;;;;2045791;29;20190;-69
2021/01/03 02:51:43;;;;;;;24.03;14.13;;;-1.40;99.90;;;;;;2055228;28;20710;-69
2021/01/03 02:52:45;;;;;;;26.63;14.20;;;-1.40;99.90;;;;;;2055576;28;20249;-70
2021/01/03 02:53:45;;;;;;;21.50;11.73;;;-1.40;99.90;;;;;;2055493;28;20210;-69
2021/01/03 02:54:46;;;;;;;25.17;13.33;;;-1.40;99.90;;;;;;2062956;28;20714;-69
2021/01/03 02:55:47;;;;;;;24.60;14.00;;;-1.30;99.90;;;;;;2055022;28;20205;-69
2021/01/03 02:56:49;;;;;;;22.40;12.93;;;-1.30;99.90;;;;;;2055005;28;20232;-69
2021/01/03 02:57:49;;;;;;;22.48;13.05;;;-1.30;99.90;;;;;;2055586;28;20202;-69
2021/01/03 02:58:50;;;;;;;22.20;13.00;;;-1.40;99.90;;;;;;2055651;28;20204;-69
2021/01/03 02:59:51;;;;;;;23.67;12.90;;;-1.30;99.90;;;;;;2062988;28;20335;-69
2021/01/03 03:00:52;;;;;;;23.40;13.50;;;-1.30;99.90;;;;;;2054920;28;20220;-69
2021/01/03 03:01:52;;;;;;;23.33;13.10;;;-1.30;99.90;;;;;;2054815;28;20709;-70
2021/01/03 03:02:53;;;;;;;28.13;15.17;;;-1.30;99.90;;;;;;2055595;28;20201;-69
2021/01/03 03:03:54;;;;;;;26.85;14.85;;;-1.30;99.90;;;;;;2054870;28;20191;-69
2021/01/03 03:04:55;;;;;;;25.40;13.53;;;-1.30;99.90;;;;;;2055101;28;20194;-69
2021/01/03 03:05:55;;;;;;;25.80;13.17;;;-1.30;99.90;;;;;;2055484;28;20189;-69
2021/01/03 03:06:56;;;;;;;23.73;13.43;;;-1.30;99.90;;;;;;2055104;28;20248;-69
2021/01/03 03:07:57;;;;;;;26.83;13.87;;;-1.30;99.90;;;;;;2046739;28;20222;-69
2021/01/03 03:08:57;;;;;;;26.57;13.43;;;-1.30;99.90;;;;;;2047079;29;20272;-69
2021/01/03 03:09:58;;;;;;;25.07;13.50;;;-1.30;99.90;;;;;;2054962;28;20216;-68
2021/01/03 03:10:59;;;;;;;25.57;14.70;;;-1.40;99.90;;;;;;2055525;28;20197;-69
2021/01/03 03:11:59;;;;;;;24.00;13.67;;;-1.40;99.90;;;;;;2055719;28;20834;-69
2021/01/03 03:13:01;;;;;;;23.43;12.93;;;-1.30;99.90;;;;;;2055568;28;20269;-69
2021/01/03 03:14:02;;;;;;;21.83;12.20;;;-1.30;99.90;;;;;;2054933;28;20221;-69
2021/01/03 03:15:07;;;;;;;20.40;11.85;;;-1.30;99.90;;;;;;2046867;28;20785;-69
2021/01/03 03:16:08;;;;;;;21.95;11.77;;;-1.30;99.90;;;;;;2040263;28;20203;-69
2021/01/03 03:17:09;;;;;;;19.03;11.50;;;-1.40;99.90;;;;;;2055044;28;20257;-69
2021/01/03 03:18:09;;;;;;;17.37;10.77;;;-1.40;99.90;;;;;;2055483;28;20265;-69
2021/01/03 03:19:11;;;;;;;19.77;11.07;;;-1.30;99.90;;;;;;2054908;28;20479;-69
2021/01/03 03:20:13;;;;;;;19.70;11.15;;;-1.30;99.90;;;;;;2054989;28;20221;-70
2021/01/03 03:21:18;;;;;;;17.45;11.07;;;-1.40;99.90;;;;;;2054645;28;20209;-69
2021/01/03 03:22:19;;;;;;;16.27;9.90;;;-1.40;99.90;;;;;;2085918;28;20642;-69
2021/01/03 03:23:20;;;;;;;16.93;9.70;;;-1.40;99.90;;;;;;2054725;28;20186;-69
2021/01/03 03:24:21;;;;;;;15.45;9.75;;;-1.40;99.90;;;;;;2054717;28;20742;-69
2021/01/03 03:25:23;;;;;;;17.27;10.60;;;-1.40;99.90;;;;;;2054833;28;20182;-69
2021/01/03 03:26:23;;;;;;;16.10;9.20;;;-1.40;99.90;;;;;;2054868;28;20181;-69
2021/01/03 03:27:24;;;;;;;15.23;9.57;;;-1.40;99.90;;;;;;2054900;28;20239;-69
2021/01/03 03:28:25;;;;;;;15.10;9.73;;;-1.40;99.90;;;;;;2055627;28;20224;-69
2021/01/03 03:29:26;;;;;;;15.47;9.67;;;-1.40;99.90;;;;;;2055357;28;20177;-69
2021/01/03 03:30:27;;;;;;;16.33;9.80;;;-1.40;99.90;;;;;;2054936;28;20182;-69
2021/01/03 03:31:29;;;;;;;18.27;10.00;;;-1.30;99.90;;;;;;2054473;28;20660;-70
2021/01/03 03:32:30;;;;;;;17.60;9.35;;;-1.40;99.90;;;;;;2054681;28;20209;-69
2021/01/03 03:33:31;;;;;;;17.67;10.13;;;-1.40;99.90;;;;;;2054752;28;20652;-69
2021/01/03 03:34:31;;;;;;;13.33;8.97;;;-1.40;99.90;;;;;;2054712;28;20183;-69
2021/01/03 03:35:37;;;;;;;12.73;8.47;;;-1.40;99.90;;;;;;2054688;28;20187;-70
2021/01/03 03:36:38;;;;;;;15.65;9.23;;;-1.40;99.90;;;;;;2054893;28;20624;-69
2021/01/03 03:37:39;;;;;;;14.13;9.43;;;-1.40;99.90;;;;;;2054852;28;20202;-69
2021/01/03 03:38:40;;;;;;;18.23;10.47;;;-1.40;99.90;;;;;;2055489;28;20265;-69
2021/01/03 03:39:41;;;;;;;15.43;8.97;;;-1.40;99.90;;;;;;2055244;28;20421;-70
2021/01/03 03:40:41;;;;;;;17.10;9.63;;;-1.40;99.90;;;;;;2054580;28;20185;-69
2021/01/03 03:41:42;;;;;;;17.67;10.30;;;-1.40;99.90;;;;;;2054626;28;20183;-69
2021/01/03 03:42:43;;;;;;;15.13;9.50;;;-1.50;99.90;;;;;;2062824;28;20209;-69
2021/01/03 03:43:44;;;;;;;14.73;9.35;;;-1.40;99.90;;;;;;2054902;28;20232;-72
2021/01/03 03:44:45;;;;;;;15.23;8.67;;;-1.40;99.90;;;;;;2054902;28;20696;-69
2021/01/03 03:45:45;;;;;;;17.50;9.50;;;-1.30;99.90;;;;;;2055312;28;20778;-69
2021/01/03 03:46:52;;;;;;;15.40;9.47;;;-1.30;99.90;;;;;;2054834;28;20183;-69
2021/01/03 03:48:57;;;;;;;17.67;9.75;;;-1.30;99.90;;;;;;2060247;28;20237;-65
2021/01/03 03:49:58;;;;;;;13.97;9.03;;;-1.30;99.90;;;;;;2063331;28;20192;-65
2021/01/03 03:50:59;;;;;;;16.97;9.83;;;-1.40;99.90;;;;;;2062986;28;20182;-63
2021/01/03 03:52:02;;;;;;;15.33;9.17;;;-1.30;99.90;;;;;;2063448;28;20182;-64
2021/01/03 03:53:03;;;;;;;16.70;9.70;;;-1.30;99.90;;;;;;2063474;28;20294;-65
2021/01/03 03:54:04;;;;;;;15.07;9.60;;;-1.30;99.90;;;;;;2062809;28;20633;-65
2021/01/03 03:55:06;;;;;;;15.88;10.10;;;-1.40;99.90;;;;;;2060354;28;20194;-62
2021/01/03 03:56:10;;;;;;;15.60;9.23;;;-1.40;99.90;;;;;;2051291;28;20765;-64
2021/01/03 03:57:10;;;;;;;13.88;9.13;;;-1.40;99.90;;;;;;2048023;28;20260;-64
2021/01/03 03:58:11;;;;;;;16.53;10.03;;;-1.40;99.90;;;;;;2048824;28;20235;-65
2021/01/03 03:59:12;;;;;;;15.13;9.80;;;-1.40;99.90;;;;;;2048627;29;20618;-63
2021/01/03 04:00:20;;;;;;;15.10;9.53;;;-1.40;99.90;;;;;;2048884;29;20179;-65
2021/01/03 04:01:21;;;;;;;13.63;8.90;;;-1.40;99.90;;;;;;2048320;29;20666;-65
2021/01/03 04:02:22;;;;;;;13.97;8.87;;;-1.30;99.90;;;;;;2048622;29;20176;-64
2021/01/03 04:03:22;;;;;;;15.07;9.90;;;-1.30;99.90;;;;;;2048629;29;20705;-64
2021/01/03 04:04:25;;;;;;;16.50;9.90;;;-1.40;99.90;;;;;;2048830;29;20217;-64
2021/01/03 04:05:26;;;;;;;15.05;9.57;;;-1.40;99.90;;;;;;2048563;29;20710;-63
2021/01/03 04:06:27;;;;;;;15.88;9.52;;;-1.40;99.90;;;;;;2048852;28;20217;-64
2021/01/03 04:07:28;;;;;;;19.67;10.63;;;-1.30;99.90;;;;;;2048413;29;20179;-62
2021/01/03 04:08:29;;;;;;;15.00;9.97;;;-1.30;99.90;;;;;;2048608;29;20621;-65
2021/01/03 04:09:30;;;;;;;14.35;9.05;;;-1.30;99.90;;;;;;2048550;29;20547;-64
2021/01/03 04:10:31;;;;;;;14.53;9.73;;;-1.40;99.90;;;;;;2048452;29;20259;-65
2021/01/03 04:11:32;;;;;;;14.90;9.10;;;-1.30;99.90;;;;;;2048306;29;20270;-65
2021/01/03 04:12:34;;;;;;;15.50;9.80;;;-1.30;99.90;;;;;;2047864;29;20175;-65
2021/01/03 04:13:35;;;;;;;16.73;9.90;;;-1.30;99.90;;;;;;2040034;29;20246;-65
2021/01/03 04:14:35;;;;;;;16.27;8.90;;;-1.30;99.90;;;;;;2048062;29;20181;-65
2021/01/03 04:15:37;;;;;;;15.33;9.47;;;-1.40;99.90;;;;;;2048125;29;20183;-64
2021/01/03 04:16:55;;;;;;;11.63;8.23;;;-1.30;99.90;;;;;;2048013;29;20183;-65
2021/01/03 04:17:56;;;;;;;13.02;8.63;;;-1.30;99.90;;;;;;2048414;29;20193;-64
2021/01/03 04:18:57;;;;;;;13.23;9.17;;;-1.30;99.90;;;;;;2048663;29;20182;-64
2021/01/03 04:19:57;;;;;;;14.10;9.03;;;-1.30;99.90;;;;;;2048481;29;20308;-64
2021/01/03 04:20:58;;;;;;;12.67;8.33;;;-1.30;99.90;;;;;;2048220;29;20191;-64
2021/01/03 04:22:05;;;;;;;12.40;8.87;;;-1.40;99.90;;;;;;2048521;29;20542;-64
2021/01/03 04:23:08;;;;;;;13.45;8.70;;;-1.30;99.90;;;;;;2048494;28;20193;-65
2021/01/03 04:24:10;;;;;;;14.43;8.80;;;-1.30;99.90;;;;;;2047815;29;20183;-65
2021/01/03 04:25:14;;;;;;;14.02;9.43;;;-1.40;99.90;;;;;;2047993;29;20253;-65
2021/01/03 04:26:20;;;;;;;13.40;8.60;;;-1.40;99.90;;;;;;2047836;29;20187;-64
2021/01/03 04:27:20;;;;;;;13.27;8.50;;;-1.30;99.90;;;;;;2048094;29;20269;-64
2021/01/03 04:28:21;;;;;;;13.67;8.57;;;-1.40;99.90;;;;;;2048374;29;20678;-64
2021/01/03 04:29:22;;;;;;;14.67;9.33;;;-1.40;99.90;;;;;;2048653;29;20261;-65
2021/01/03 04:30:25;;;;;;;12.45;7.95;;;-1.40;99.90;;;;;;2048504;29;20186;-64
2021/01/03 04:31:26;;;;;;;12.85;8.55;;;-1.40;99.90;;;;;;2048402;29;20233;-65
2021/01/03 04:32:27;;;;;;;13.83;9.10;;;-1.40;99.90;;;;;;2048500;29;20198;-64
2021/01/03 04:33:28;;;;;;;12.40;8.50;;;-1.50;99.90;;;;;;2048457;29;20271;-65
2021/01/03 04:34:29;;;;;;;14.33;8.97;;;-1.50;99.90;;;;;;2048397;29;20188;-65
2021/01/03 04:35:29;;;;;;;14.38;9.35;;;-1.40;99.90;;;;;;2048462;29;20324;-65
2021/01/03 04:36:30;;;;;;;15.43;9.07;;;-1.40;99.90;;;;;;2048456;29;20182;-65
2021/01/03 04:37:31;;;;;;;14.07;9.67;;;-1.30;99.90;;;;;;2048447;29;20179;-64
2021/01/03 04:38:31;;;;;;;14.27;9.73;;;-1.40;99.90;;;;;;2048364;29;20302;-65
2021/01/03 04:39:33;;;;;;;13.77;8.77;;;-1.50;99.90;;;;;;2048452;29;20194;-64
2021/01/03 04:40:34;;;;;;;13.95;9.35;;;-1.50;99.90;;;;;;2048371;29;20185;-65
2021/01/03 04:41:39;;;;;;;14.88;9.02;;;-1.40;99.90;;;;;;2048261;29;20179;-65
2021/01/03 04:42:40;;;;;;;14.43;9.20;;;-1.40;99.90;;;;;;2047843;29;20261;-64
2021/01/03 04:43:40;;;;;;;13.63;8.70;;;-1.40;99.90;;;;;;2060831;28;20601;-65
2021/01/03 04:44:49;;;;;;;14.53;9.60;;;-1.40;99.90;;;;;;2047733;29;20450;-65
2021/01/03 04:46:01;;;;;;;14.10;8.98;;;-1.40;99.90;;;;;;2055885;28;20177;-65
2021/01/03 04:47:17;;;;;;;14.43;8.63;;;-1.40;99.90;;;;;;2049226;28;20179;-64
2021/01/03 04:48:28;;;;;;;13.45;8.35;;;-1.40;99.90;;;;;;2055873;28;20707;-65
2021/01/03 04:50:11;;;;;;;14.15;8.93;;;-1.40;99.90;;;;;;2056447;28;20182;-65
2021/01/03 04:51:36;;;;;;;11.43;7.68;;;-1.40;99.90;;;;;;2055640;28;20178;-64
2021/01/03 04:53:06;;;;;;;13.38;8.18;;;-1.40;99.90;;;;;;2051168;28;20189;-65
2021/01/03 04:54:19;;;;;;;12.40;7.55;;;-1.40;99.90;;;;;;2043853;29;20248;-64
2021/01/03 04:55:29;;;;;;;12.38;8.32;;;-1.30;99.90;;;;;;2044385;28;20200;-65
2021/01/03 04:56:41;;;;;;;14.52;8.77;;;-1.30;99.90;;;;;;2055963;28;20262;-65
2021/01/03 04:58:00;;;;;;;13.35;8.70;;;-1.40;99.90;;;;;;2056329;28;20183;-65
2021/01/03 04:59:12;;;;;;;13.50;8.35;;;-1.40;99.90;;;;;;2055847;28;20264;-65
2021/01/03 05:00:16;;;;;;;12.93;8.30;;;-1.40;99.90;;;;;;2055848;28;20665;-65
2021/01/03 05:01:38;;;;;;;14.30;9.02;;;-1.40;99.90;;;;;;2047275;29;20199;-65
2021/01/03 05:03:28;;;;;;;12.35;8.07;;;-1.40;99.90;;;;;;2050971;28;20681;-65
2021/01/03 05:05:05;;;;;;;12.48;7.70;;;-1.40;99.90;;;;;;2056388;28;20174;-65
2021/01/03 05:06:20;;;;;;;12.07;8.10;;;-1.40;99.90;;;;;;2056042;28;20181;-65
2021/01/03 05:07:39;;;;;;;15.60;8.07;;;-1.50;99.90;;;;;;2056314;28;20174;-65
2021/01/03 05:08:51;;;;;;;11.98;7.25;;;-1.50;99.90;;;;;;2055412;28;20217;-65
2021/01/03 05:10:17;;;;;;;11.43;7.88;;;-1.40;99.90;;;;;;2049054;28;20218;-65
2021/01/03 05:11:23;;;;;;;13.73;8.57;;;-1.40;99.90;;;;;;2042677;28;20725;-65
2021/01/03 05:12:34;;;;;;;13.25;8.52;;;-1.30;99.90;;;;;;2041041;28;20183;-65
2021/01/03 05:13:57;;;;;;;14.30;8.20;;;-1.30;99.90;;;;;;2048938;28;20194;-65
2021/01/03 05:15:11;;;;;;;15.27;9.10;;;-1.30;99.90;;;;;;2055897;28;20264;-65
2021/01/03 05:16:17;;;;;;;14.73;8.45;;;-1.40;99.90;;;;;;2055477;28;20166;-65
2021/01/03 05:17:17;;;;;;;13.77;8.73;;;-1.40;99.90;;;;;;2055496;28;20177;-65
2021/01/03 05:18:18;;;;;;;16.07;9.30;;;-1.40;99.90;;;;;;2055403;28;20297;-64
2021/01/03 05:19:19;;;;;;;14.27;8.97;;;-1.50;99.90;;;;;;2055473;28;20276;-65
2021/01/03 05:20:20;;;;;;;14.40;9.10;;;-1.40;99.90;;;;;;2056053;28;20257;-64
2021/01/03 05:21:20;;;;;;;13.00;9.07;;;-1.40;99.90;;;;;;2055242;28;20204;-65
2021/01/03 05:22:31;;;;;;;13.93;9.33;;;-1.40;99.90;;;;;;2055346;28;20213;-65
2021/01/03 05:23:36;;;;;;;14.40;8.88;;;-1.50;99.90;;;;;;2058819;28;20180;-65
2021/01/03 05:24:45;;;;;;;15.90;9.48;;;-1.40;99.90;;;;;;2059841;28;20201;-65
2021/01/03 05:25:48;;;;;;;14.20;9.13;;;-1.50;99.90;;;;;;2060167;28;20213;-64
2021/01/03 05:26:49;;;;;;;13.73;9.00;;;-1.50;99.90;;;;;;2059809;28;20555;-65
2021/01/03 05:28:06;;;;;;;13.63;8.80;;;-1.50;99.90;;;;;;2051434;28;20261;-65
2021/01/03 05:29:12;;;;;;;13.70;8.45;;;-1.40;99.90;;;;;;2055940;28;20234;-65
2021/01/03 05:30:26;;;;;;;13.38;8.65;;;-1.40;99.90;;;;;;2056502;28;20254;-65